Time;durP1;ratioP1;P1;durP2;ratioP2;P2;SDS_P1;SDS_P2;PMS_P1;PMS_P2;Temp;Humidity;BMP_temperature;BMP_pressure;BME280_temperature;BME280_humidity;BME280_pressure;Samples;Min_cycle;Max_cycle;Signal;HPM_P1;HPM_P2
2023/03/07 00:00:11;;;;;;;15.70;9.27;;;6.50;99.90;;;;;;5071889;28;20578;-80
2023/03/07 00:02:37;;;;;;;13.07;9.00;;;6.50;99.90;;;;;;5072166;28;20175;-77
2023/03/07 00:05:03;;;;;;;13.17;8.23;;;6.40;99.90;;;;;;5071902;28;20212;-76
2023/03/07 00:07:30;;;;;;;11.13;7.77;;;6.40;99.90;;;;;;5071828;28;20176;-74
2023/03/07 00:09:57;;;;;;;12.63;8.67;;;6.40;99.90;;;;;;5071947;28;20161;-76
2023/03/07 00:12:23;;;;;;;11.73;9.33;;;6.30;99.90;;;;;;5071996;28;20857;-74
2023/03/07 00:14:49;;;;;;;14.33;9.03;;;6.30;99.90;;;;;;5072080;28;20163;-75
2023/03/07 00:17:14;;;;;;;16.93;9.43;;;6.30;99.90;;;;;;5084486;28;20699;-73
2023/03/07 00:19:43;;;;;;;14.00;9.53;;;6.30;99.90;;;;;;5073727;28;20186;-72
2023/03/07 00:22:10;;;;;;;16.10;9.13;;;6.30;99.90;;;;;;5071774;28;20180;-73
2023/03/07 00:24:36;;;;;;;14.47;8.90;;;6.30;99.90;;;;;;5071351;28;20202;-73
2023/03/07 00:27:02;;;;;;;15.23;9.10;;;6.30;99.90;;;;;;5070196;28;20181;-72
2023/03/07 00:29:28;;;;;;;14.73;9.03;;;6.30;99.90;;;;;;5071779;28;20229;-74
2023/03/07 00:31:54;;;;;;;13.53;9.10;;;6.30;99.90;;;;;;5071432;28;20170;-72
2023/03/07 00:34:20;;;;;;;16.07;9.33;;;6.30;99.90;;;;;;5071318;28;20246;-73
2023/03/07 00:36:46;;;;;;;15.70;10.07;;;6.30;99.90;;;;;;5072176;28;20175;-73
2023/03/07 00:39:11;;;;;;;14.97;9.07;;;6.30;99.90;;;;;;5073369;28;20177;-74
2023/03/07 00:41:37;;;;;;;14.57;9.17;;;6.20;99.90;;;;;;5073932;28;20168;-74
2023/03/07 00:44:03;;;;;;;15.87;9.53;;;6.20;99.90;;;;;;5071347;28;20620;-74
2023/03/07 00:46:29;;;;;;;16.70;10.70;;;6.20;99.90;;;;;;5074333;28;20184;-72
2023/03/07 00:48:54;;;;;;;16.37;9.53;;;6.20;99.90;;;;;;5075064;28;20173;-74
2023/03/07 00:51:22;;;;;;;14.90;9.77;;;6.20;99.90;;;;;;5075111;28;20565;-72
2023/03/07 00:53:49;;;;;;;17.13;10.23;;;6.20;99.90;;;;;;5075569;28;20182;-74
2023/03/07 00:56:17;;;;;;;13.30;9.33;;;6.10;99.90;;;;;;5078846;28;20179;-75
2023/03/07 00:58:44;;;;;;;14.30;9.53;;;6.00;99.90;;;;;;5082827;28;20251;-74
2023/03/07 01:01:12;;;;;;;16.27;10.13;;;6.00;99.90;;;;;;5075500;28;20192;-73
2023/03/07 01:03:37;;;;;;;16.63;9.13;;;5.80;99.90;;;;;;5074955;28;20181;-73
2023/03/07 01:06:06;;;;;;;13.10;9.23;;;5.90;99.90;;;;;;5074091;28;20207;-75
2023/03/07 01:08:33;;;;;;;15.60;10.00;;;5.90;99.90;;;;;;5074103;28;20174;-77
2023/03/07 01:11:01;;;;;;;13.00;9.57;;;5.90;99.90;;;;;;5075077;28;20181;-73
2023/03/07 01:13:27;;;;;;;16.00;10.10;;;5.90;99.90;;;;;;5075107;28;20171;-76
2023/03/07 01:15:53;;;;;;;15.53;9.70;;;5.90;99.90;;;;;;5075078;28;20663;-74
2023/03/07 01:18:19;;;;;;;12.93;8.70;;;6.00;99.90;;;;;;5074597;28;20176;-76
2023/03/07 01:20:44;;;;;;;15.93;9.03;;;6.00;99.90;;;;;;5074634;28;20180;-76
2023/03/07 01:23:10;;;;;;;13.43;9.43;;;6.00;99.90;;;;;;5074815;28;20266;-76
2023/03/07 01:25:39;;;;;;;15.43;9.87;;;6.00;99.90;;;;;;5074867;28;20670;-76
2023/03/07 01:28:06;;;;;;;14.23;10.03;;;6.10;99.90;;;;;;5073312;28;20196;-78
2023/03/07 01:30:32;;;;;;;14.33;9.13;;;6.00;99.90;;;;;;5074684;28;20523;-76
2023/03/07 01:32:59;;;;;;;15.87;9.93;;;6.10;99.90;;;;;;5074707;28;20178;-80
2023/03/07 01:35:26;;;;;;;22.97;10.77;;;6.10;99.90;;;;;;5078455;28;20172;-79
2023/03/07 01:37:53;;;;;;;15.60;9.90;;;6.10;99.90;;;;;;5080569;28;20246;-75
2023/03/07 01:40:21;;;;;;;15.90;9.90;;;6.00;99.90;;;;;;5082049;28;20171;-77
2023/03/07 01:42:47;;;;;;;17.90;10.07;;;6.00;99.90;;;;;;5074744;28;20222;-76
2023/03/07 01:45:12;;;;;;;18.73;10.50;;;6.00;99.90;;;;;;5074392;28;20199;-77
2023/03/07 01:47:39;;;;;;;14.23;10.07;;;6.00;99.90;;;;;;5074605;28;20170;-76
2023/03/07 01:50:14;;;;;;;14.83;10.27;;;5.80;99.90;;;;;;5074569;28;20164;-81
2023/03/07 01:52:48;;;;;;;18.57;10.20;;;5.80;99.90;;;;;;5075265;28;20517;-74
2023/03/07 01:55:18;;;;;;;17.77;9.97;;;5.90;99.90;;;;;;5083740;28;20189;-76
2023/03/07 01:57:46;;;;;;;18.73;11.07;;;5.80;99.90;;;;;;5075929;28;20161;-77
2023/03/07 02:00:18;;;;;;;17.20;10.83;;;5.70;99.90;;;;;;5073868;28;20175;-75
2023/03/07 02:02:50;;;;;;;16.43;9.90;;;5.70;99.90;;;;;;5072805;28;20203;-76
2023/03/07 02:05:24;;;;;;;15.80;10.73;;;5.70;99.90;;;;;;5072583;28;20293;-75
2023/03/07 02:07:51;;;;;;;14.53;10.30;;;5.80;99.90;;;;;;5072733;28;20171;-76
2023/03/07 02:10:20;;;;;;;15.73;10.53;;;5.90;99.90;;;;;;5073771;28;20181;-77
2023/03/07 02:12:47;;;;;;;16.30;9.73;;;5.90;99.90;;;;;;5073982;28;20167;-73
2023/03/07 02:15:13;;;;;;;14.70;9.73;;;5.90;99.90;;;;;;5073822;28;20515;-76
2023/03/07 02:17:40;;;;;;;17.10;11.37;;;5.80;99.90;;;;;;5072089;28;20662;-73
2023/03/07 02:20:28;;;;;;;14.43;9.60;;;5.90;99.90;;;;;;5073356;28;20223;-74
2023/03/07 02:22:55;;;;;;;14.90;9.73;;;5.80;99.90;;;;;;5073841;28;20440;-73
2023/03/07 02:26:00;;;;;;;13.23;9.23;;;5.60;99.90;;;;;;5073454;28;20219;-74
2023/03/07 02:28:27;;;;;;;16.20;10.03;;;5.60;99.90;;;;;;5074046;28;20164;-74
2023/03/07 02:31:06;;;;;;;16.83;9.93;;;5.50;99.90;;;;;;5073692;28;20173;-74
2023/03/07 02:33:31;;;;;;;15.27;10.10;;;5.40;99.90;;;;;;5080980;28;20826;-74
2023/03/07 02:36:04;;;;;;;15.27;10.87;;;5.50;99.90;;;;;;5079285;28;20213;-76
2023/03/07 02:38:35;;;;;;;15.37;9.80;;;5.60;99.90;;;;;;5073866;28;20624;-76
2023/03/07 02:41:02;;;;;;;17.43;9.90;;;5.60;99.90;;;;;;5071677;28;20260;-73
2023/03/07 02:43:28;;;;;;;20.07;10.93;;;5.70;99.90;;;;;;5073140;28;20767;-74
2023/03/07 02:45:54;;;;;;;16.40;10.03;;;5.80;99.90;;;;;;5073047;28;20200;-76
2023/03/07 02:48:20;;;;;;;17.30;10.33;;;5.80;99.90;;;;;;5073168;28;20355;-77
2023/03/07 02:50:47;;;;;;;16.40;9.77;;;5.80;99.90;;;;;;5072927;28;20175;-77
2023/03/07 02:53:13;;;;;;;17.70;9.93;;;5.70;99.90;;;;;;5073146;28;20274;-74
2023/03/07 02:55:39;;;;;;;16.03;10.17;;;5.60;99.90;;;;;;5073285;28;20252;-74
2023/03/07 02:58:04;;;;;;;15.67;10.37;;;5.70;99.90;;;;;;5072726;28;20184;-74
2023/03/07 03:00:30;;;;;;;15.37;10.40;;;5.60;99.90;;;;;;5072405;28;20189;-75
2023/03/07 03:02:56;;;;;;;14.43;9.97;;;5.60;99.90;;;;;;5073037;28;20176;-79
2023/03/07 03:05:22;;;;;;;16.93;10.83;;;5.70;99.90;;;;;;5072674;28;20211;-74
2023/03/07 03:07:48;;;;;;;16.80;10.73;;;5.60;99.90;;;;;;5072308;28;20215;-73
2023/03/07 03:10:14;;;;;;;16.27;10.50;;;5.60;99.90;;;;;;5072318;28;20209;-77
2023/03/07 03:12:40;;;;;;;17.07;10.77;;;5.50;99.90;;;;;;5072582;28;20179;-74
2023/03/07 03:15:06;;;;;;;17.63;11.13;;;5.60;99.90;;;;;;5072648;28;20232;-74
2023/03/07 03:17:32;;;;;;;15.93;10.03;;;5.60;99.90;;;;;;5073000;28;20183;-76
2023/03/07 03:19:58;;;;;;;16.50;10.43;;;5.40;99.90;;;;;;5070861;28;20602;-75
2023/03/07 03:22:23;;;;;;;15.93;9.93;;;5.40;99.90;;;;;;5072490;28;20178;-76
2023/03/07 03:24:49;;;;;;;19.77;11.53;;;5.40;99.90;;;;;;5072241;28;20232;-76
2023/03/07 03:27:15;;;;;;;20.50;10.73;;;5.40;99.90;;;;;;5072299;28;20182;-75
2023/03/07 03:29:41;;;;;;;17.47;10.70;;;5.40;99.90;;;;;;5074073;28;20183;-75
2023/03/07 03:32:07;;;;;;;19.10;10.37;;;5.50;99.90;;;;;;5077204;28;20609;-74
2023/03/07 03:34:32;;;;;;;18.70;11.00;;;5.50;99.90;;;;;;5078833;28;20778;-73
2023/03/07 03:36:58;;;;;;;20.20;10.53;;;5.50;99.90;;;;;;5074117;28;20211;-73
2023/03/07 03:39:24;;;;;;;15.27;10.43;;;5.60;99.90;;;;;;5072586;28;20659;-72
2023/03/07 03:41:50;;;;;;;15.63;10.57;;;5.50;99.90;;;;;;5075652;28;20179;-72
2023/03/07 03:44:16;;;;;;;17.40;10.63;;;5.40;99.90;;;;;;5062103;28;20224;-74
2023/03/07 03:46:41;;;;;;;16.00;10.13;;;5.50;99.90;;;;;;5072394;28;20653;-75
2023/03/07 03:49:10;;;;;;;15.77;10.40;;;5.60;99.90;;;;;;5071856;28;20305;-76
2023/03/07 03:51:35;;;;;;;18.50;10.47;;;5.60;99.90;;;;;;5071797;28;20274;-72
2023/03/07 03:54:01;;;;;;;17.40;11.33;;;5.70;99.90;;;;;;5071942;28;20253;-74
2023/03/07 03:56:28;;;;;;;15.30;10.20;;;5.70;99.90;;;;;;5072028;28;20173;-75
2023/03/07 03:58:56;;;;;;;17.27;10.07;;;5.60;99.90;;;;;;5070150;28;20184;-75
2023/03/07 04:01:23;;;;;;;17.23;10.27;;;5.70;99.90;;;;;;5071511;28;20174;-74
2023/03/07 04:03:51;;;;;;;17.57;10.63;;;5.70;99.90;;;;;;5071939;28;20260;-73
2023/03/07 04:06:19;;;;;;;19.77;11.27;;;5.70;99.90;;;;;;5072453;28;20545;-77
2023/03/07 04:08:46;;;;;;;15.60;10.37;;;5.70;99.90;;;;;;5074561;28;20175;-76
2023/03/07 04:11:12;;;;;;;15.27;10.27;;;5.60;99.90;;;;;;5079528;28;20170;-76
2023/03/07 04:13:38;;;;;;;15.33;10.77;;;5.60;99.90;;;;;;5072245;28;20201;-75
2023/03/07 04:16:04;;;;;;;17.43;10.47;;;5.70;99.90;;;;;;5070694;28;20167;-72
2023/03/07 04:18:30;;;;;;;16.13;10.47;;;5.70;99.90;;;;;;5071765;28;20179;-76
2023/03/07 04:20:56;;;;;;;16.30;10.43;;;5.70;99.90;;;;;;5071382;28;20665;-74
2023/03/07 04:23:23;;;;;;;14.43;10.13;;;5.60;99.90;;;;;;5071579;28;20179;-77
2023/03/07 04:25:50;;;;;;;20.03;11.03;;;5.50;99.90;;;;;;5071637;28;20213;-73
2023/03/07 04:28:17;;;;;;;16.80;9.67;;;5.40;99.90;;;;;;5071757;28;20615;-75
2023/03/07 04:30:43;;;;;;;18.00;10.90;;;5.40;99.90;;;;;;5071606;28;20178;-74
2023/03/07 04:33:09;;;;;;;19.63;10.77;;;5.50;99.90;;;;;;5071481;28;20167;-76
2023/03/07 04:35:35;;;;;;;15.57;10.10;;;5.50;99.90;;;;;;5072084;28;20686;-72
2023/03/07 04:38:01;;;;;;;17.33;10.67;;;5.50;99.90;;;;;;5073884;28;20238;-71
2023/03/07 04:40:27;;;;;;;19.40;11.17;;;5.50;99.90;;;;;;5071432;28;20533;-73
2023/03/07 04:42:53;;;;;;;17.17;11.60;;;5.50;99.90;;;;;;5071514;28;20171;-73
2023/03/07 04:45:18;;;;;;;16.83;9.80;;;5.50;99.90;;;;;;5071923;28;20234;-73
2023/03/07 04:47:44;;;;;;;16.57;9.97;;;5.50;99.90;;;;;;5071948;28;20172;-75
2023/03/07 04:50:10;;;;;;;15.63;10.47;;;5.50;99.90;;;;;;5071329;28;20181;-75
2023/03/07 04:52:36;;;;;;;19.47;11.43;;;5.50;99.90;;;;;;5071478;28;20264;-74
2023/03/07 04:55:02;;;;;;;16.43;10.33;;;5.50;99.90;;;;;;5071739;28;20186;-73
2023/03/07 04:57:27;;;;;;;20.07;11.33;;;5.60;99.90;;;;;;5071482;28;20175;-74
2023/03/07 04:59:53;;;;;;;18.27;11.10;;;5.50;99.90;;;;;;5071160;28;20641;-76
2023/03/07 05:02:19;;;;;;;18.57;11.43;;;5.60;99.90;;;;;;5071284;28;20174;-74
2023/03/07 05:04:44;;;;;;;19.37;10.83;;;5.60;99.90;;;;;;5071030;28;20211;-73
2023/03/07 05:07:10;;;;;;;18.57;11.30;;;5.60;99.90;;;;;;5071206;28;20643;-72
2023/03/07 05:09:36;;;;;;;18.57;10.37;;;5.70;99.90;;;;;;5071179;28;20170;-75
2023/03/07 05:12:02;;;;;;;17.27;10.67;;;5.60;99.90;;;;;;5072329;28;20262;-71
2023/03/07 05:14:27;;;;;;;18.10;11.17;;;5.60;99.90;;;;;;5072545;28;20638;-72
2023/03/07 05:16:53;;;;;;;14.40;10.40;;;5.50;99.90;;;;;;5070139;28;20185;-75
2023/03/07 05:19:19;;;;;;;15.93;10.60;;;5.50;99.90;;;;;;5071037;28;20538;-76
2023/03/07 05:21:46;;;;;;;15.07;10.17;;;5.60;99.90;;;;;;5069645;28;20628;-76
2023/03/07 05:24:12;;;;;;;15.37;10.70;;;5.70;99.90;;;;;;5071036;28;20173;-74
2023/03/07 05:26:37;;;;;;;17.43;10.93;;;5.80;99.90;;;;;;5071252;28;20211;-76
2023/03/07 05:29:03;;;;;;;17.63;11.07;;;5.70;99.90;;;;;;5071048;28;20657;-76
2023/03/07 05:31:29;;;;;;;18.20;11.03;;;5.60;99.90;;;;;;5075338;28;20176;-75
2023/03/07 05:33:55;;;;;;;17.17;10.70;;;5.70;99.90;;;;;;5077844;28;20178;-75
2023/03/07 05:36:20;;;;;;;16.07;10.67;;;5.60;99.90;;;;;;5075278;28;20182;-76
2023/03/07 05:38:47;;;;;;;13.67;9.60;;;5.60;99.90;;;;;;5075468;28;20175;-75
2023/03/07 05:41:12;;;;;;;15.37;10.70;;;5.60;99.90;;;;;;5073725;28;20354;-75
2023/03/07 05:43:38;;;;;;;17.67;10.90;;;5.50;99.90;;;;;;5076241;28;20210;-73
2023/03/07 05:46:04;;;;;;;17.03;10.80;;;5.60;99.90;;;;;;5081509;28;20679;-76
2023/03/07 05:48:30;;;;;;;18.87;11.07;;;5.60;99.90;;;;;;5080910;28;20620;-74
2023/03/07 05:50:59;;;;;;;16.80;11.00;;;5.60;99.90;;;;;;5076063;28;20183;-73
2023/03/07 05:53:25;;;;;;;16.57;10.17;;;5.50;99.90;;;;;;5076027;28;20168;-74
2023/03/07 05:55:51;;;;;;;18.30;10.60;;;5.50;99.90;;;;;;5076177;28;20167;-74
2023/03/07 05:58:17;;;;;;;17.63;11.07;;;5.50;99.90;;;;;;5076173;28;20181;-76
2023/03/07 06:00:43;;;;;;;18.13;11.80;;;5.50;99.90;;;;;;5074798;28;20182;-73
2023/03/07 06:03:09;;;;;;;14.97;10.83;;;5.50;99.90;;;;;;5074792;28;20581;-73
2023/03/07 06:05:34;;;;;;;13.60;9.90;;;5.60;99.90;;;;;;5072755;28;20216;-75
2023/03/07 06:08:00;;;;;;;18.37;11.20;;;5.60;99.90;;;;;;5074429;28;20186;-79
2023/03/07 06:10:26;;;;;;;13.50;9.27;;;5.70;99.90;;;;;;5074042;28;20179;-77
2023/03/07 06:12:53;;;;;;;16.03;9.93;;;5.60;99.90;;;;;;5073986;28;20254;-74
2023/03/07 06:15:19;;;;;;;20.57;10.47;;;5.60;99.90;;;;;;5072721;28;20178;-72
2023/03/07 06:17:45;;;;;;;14.50;10.57;;;5.50;99.90;;;;;;5072566;28;20259;-79
2023/03/07 06:20:12;;;;;;;16.80;10.87;;;5.50;99.90;;;;;;5072530;28;20175;-79
2023/03/07 06:22:38;;;;;;;17.80;11.27;;;5.50;99.90;;;;;;5073857;28;20172;-76
2023/03/07 06:25:05;;;;;;;16.47;9.80;;;5.50;99.90;;;;;;5073503;28;20700;-77
2023/03/07 06:27:32;;;;;;;19.33;10.73;;;5.40;99.90;;;;;;5073917;28;20171;-74
2023/03/07 06:29:58;;;;;;;17.30;11.47;;;5.40;99.90;;;;;;5073639;28;20170;-76
2023/03/07 06:32:24;;;;;;;23.57;13.97;;;5.50;99.90;;;;;;5073905;28;20549;-77
2023/03/07 06:34:49;;;;;;;17.70;11.90;;;5.40;99.90;;;;;;5073699;28;20175;-76
2023/03/07 06:37:15;;;;;;;16.93;11.50;;;5.40;99.90;;;;;;5073854;28;20534;-79
2023/03/07 06:39:41;;;;;;;16.13;10.87;;;5.40;99.90;;;;;;5072171;28;20177;-75
2023/03/07 06:42:07;;;;;;;15.27;11.10;;;5.50;99.90;;;;;;5084587;28;20179;-75
2023/03/07 06:44:33;;;;;;;18.90;11.83;;;5.50;99.90;;;;;;5072895;28;20223;-80
2023/03/07 06:46:59;;;;;;;16.30;11.20;;;5.50;99.90;;;;;;5075735;28;20748;-76
2023/03/07 06:49:25;;;;;;;16.20;11.10;;;5.30;99.90;;;;;;5078776;28;20553;-84
2023/03/07 06:51:52;;;;;;;19.77;11.37;;;5.30;99.90;;;;;;5073674;28;20176;-79
2023/03/07 06:54:18;;;;;;;18.20;11.30;;;5.20;99.90;;;;;;5072025;28;20177;-76
2023/03/07 06:56:43;;;;;;;20.00;12.50;;;5.30;99.90;;;;;;5073490;28;20182;-80
2023/03/07 06:59:10;;;;;;;17.50;12.00;;;5.40;99.90;;;;;;5073419;28;20188;-74
2023/03/07 07:01:36;;;;;;;16.27;11.73;;;5.40;99.90;;;;;;5073370;28;20194;-77
2023/03/07 07:04:02;;;;;;;16.63;11.63;;;5.40;99.90;;;;;;5073234;28;20176;-77
2023/03/07 07:06:28;;;;;;;19.13;11.63;;;5.40;99.90;;;;;;5073450;28;20206;-78
2023/03/07 07:08:56;;;;;;;20.60;12.97;;;5.30;99.90;;;;;;5073159;28;20224;-78
2023/03/07 07:11:22;;;;;;;18.47;11.70;;;5.40;99.90;;;;;;5073214;28;20178;-78
2023/03/07 07:13:49;;;;;;;20.03;12.23;;;5.50;99.90;;;;;;5071722;28;20179;-77
2023/03/07 07:16:16;;;;;;;18.43;12.57;;;5.60;99.90;;;;;;5072880;28;20173;-81
2023/03/07 07:18:43;;;;;;;18.60;12.80;;;5.60;99.90;;;;;;5073563;28;20231;-75
2023/03/07 07:21:09;;;;;;;19.30;13.03;;;5.60;99.90;;;;;;5078620;28;20270;-77
2023/03/07 07:23:34;;;;;;;22.00;12.70;;;5.60;99.90;;;;;;5084252;28;20167;-77
2023/03/07 07:26:00;;;;;;;20.87;12.97;;;5.60;99.90;;;;;;5074290;28;20594;-77
2023/03/07 07:28:26;;;;;;;19.03;12.30;;;5.70;99.90;;;;;;5080175;28;20210;-77
2023/03/07 07:30:53;;;;;;;22.77;12.60;;;5.60;99.90;;;;;;5077965;28;20228;-75
2023/03/07 07:33:18;;;;;;;20.27;13.63;;;5.60;99.90;;;;;;5073304;28;20185;-80
2023/03/07 07:35:45;;;;;;;21.87;13.10;;;5.70;99.90;;;;;;5072895;28;20181;-80
2023/03/07 07:38:12;;;;;;;17.20;12.57;;;5.70;99.90;;;;;;5073028;28;20313;-77
2023/03/07 07:40:38;;;;;;;17.70;12.53;;;5.60;99.90;;;;;;5071332;28;20180;-78
2023/03/07 07:43:04;;;;;;;21.10;12.93;;;5.60;99.90;;;;;;5073015;28;20256;-79
2023/03/07 07:45:31;;;;;;;16.93;12.57;;;5.50;99.90;;;;;;5072012;28;20425;-79
2023/03/07 07:47:56;;;;;;;16.63;11.97;;;5.60;99.90;;;;;;5071846;28;20710;-79
2023/03/07 07:50:23;;;;;;;18.87;12.73;;;5.60;99.90;;;;;;5073107;28;20261;-80
2023/03/07 07:52:51;;;;;;;16.53;12.33;;;5.50;99.90;;;;;;5073786;28;20171;-79
2023/03/07 07:55:17;;;;;;;19.90;12.93;;;5.60;99.90;;;;;;5076580;28;20224;-78
2023/03/07 07:57:43;;;;;;;18.67;11.90;;;5.70;99.90;;;;;;5073885;28;20196;-77
2023/03/07 08:00:11;;;;;;;19.23;12.47;;;5.70;99.90;;;;;;5072323;28;20311;-78
2023/03/07 08:02:37;;;;;;;20.00;12.77;;;5.70;99.90;;;;;;5072483;28;20186;-79
2023/03/07 08:05:06;;;;;;;19.77;12.17;;;5.90;99.90;;;;;;5072085;28;20294;-78
2023/03/07 08:07:32;;;;;;;18.23;12.20;;;5.90;99.90;;;;;;5072984;28;20175;-80
2023/03/07 08:09:58;;;;;;;17.67;12.03;;;6.00;99.90;;;;;;5072509;28;20641;-77
2023/03/07 08:12:23;;;;;;;19.47;12.90;;;6.00;99.90;;;;;;5072753;28;20670;-78
2023/03/07 08:14:49;;;;;;;18.63;12.33;;;5.90;99.90;;;;;;5072474;28;20203;-80
2023/03/07 08:17:15;;;;;;;19.80;13.00;;;5.90;99.90;;;;;;5072156;28;20176;-79
2023/03/07 08:19:40;;;;;;;18.30;12.47;;;5.80;99.90;;;;;;5071809;28;20176;-79
2023/03/07 08:22:06;;;;;;;19.70;12.70;;;5.80;99.90;;;;;;5072320;28;20181;-76
2023/03/07 08:24:34;;;;;;;18.13;12.53;;;5.70;99.90;;;;;;5072082;28;20214;-78
2023/03/07 08:27:00;;;;;;;18.47;12.50;;;5.70;99.90;;;;;;5072038;28;20249;-77
2023/03/07 08:29:26;;;;;;;16.70;11.83;;;5.90;99.90;;;;;;5072006;28;20232;-77
2023/03/07 08:31:53;;;;;;;17.27;12.10;;;5.90;99.90;;;;;;5071711;28;20580;-80
2023/03/07 08:34:19;;;;;;;18.47;11.97;;;5.90;99.90;;;;;;5072324;28;20265;-79
2023/03/07 08:36:45;;;;;;;16.70;11.97;;;5.90;99.90;;;;;;5072361;28;20593;-80
2023/03/07 08:39:11;;;;;;;21.17;12.83;;;5.90;99.90;;;;;;5072502;28;20216;-80
2023/03/07 08:41:38;;;;;;;23.30;13.53;;;5.70;99.90;;;;;;5072361;28;20174;-77
2023/03/07 08:44:04;;;;;;;23.90;13.33;;;5.60;99.90;;;;;;5070689;28;20602;-76
2023/03/07 08:46:29;;;;;;;19.83;12.97;;;5.70;99.90;;;;;;5071973;28;20206;-81
2023/03/07 08:49:02;;;;;;;18.90;13.10;;;5.70;99.90;;;;;;5072026;28;20508;-80
2023/03/07 08:51:28;;;;;;;22.40;13.53;;;5.70;99.90;;;;;;5072509;28;20179;-76
2023/03/07 08:53:54;;;;;;;19.97;12.93;;;5.80;99.90;;;;;;5072928;28;20534;-79
2023/03/07 08:56:20;;;;;;;21.57;13.13;;;5.80;99.90;;;;;;5076518;28;20249;-77
2023/03/07 08:58:46;;;;;;;21.80;13.27;;;5.90;99.90;;;;;;5088390;28;20190;-77
2023/03/07 09:01:12;;;;;;;22.03;13.90;;;6.00;99.90;;;;;;5073910;28;20696;-75
2023/03/07 09:03:38;;;;;;;24.63;14.53;;;5.90;99.90;;;;;;5072615;28;20178;-78
2023/03/07 09:06:04;;;;;;;21.97;14.10;;;5.70;99.90;;;;;;5072198;28;20206;-78
2023/03/07 09:08:30;;;;;;;25.67;14.47;;;5.80;99.90;;;;;;5075864;28;20530;-80
2023/03/07 09:10:59;;;;;;;24.60;14.00;;;5.90;99.90;;;;;;5075751;28;20693;-77
2023/03/07 09:13:26;;;;;;;24.00;13.77;;;5.80;99.90;;;;;;5075551;28;20247;-78
2023/03/07 09:15:52;;;;;;;22.53;14.60;;;5.90;99.90;;;;;;5075695;28;20202;-79
2023/03/07 09:18:17;;;;;;;22.00;14.07;;;5.80;99.90;;;;;;5075533;28;20173;-79
2023/03/07 09:20:43;;;;;;;23.10;14.23;;;5.70;99.90;;;;;;5076044;28;20175;-80
2023/03/07 09:23:09;;;;;;;26.23;14.63;;;5.80;99.90;;;;;;5077079;28;20236;-80
2023/03/07 09:25:36;;;;;;;28.13;15.40;;;5.80;99.90;;;;;;5082420;28;20505;-78
2023/03/07 09:28:03;;;;;;;24.00;13.63;;;5.90;99.90;;;;;;5076644;28;20181;-77
2023/03/07 09:30:28;;;;;;;22.80;14.53;;;5.90;99.90;;;;;;5074468;28;20177;-78
2023/03/07 09:32:55;;;;;;;21.47;13.57;;;5.90;99.90;;;;;;5076388;28;20668;-80
2023/03/07 09:35:21;;;;;;;24.00;13.97;;;5.80;99.90;;;;;;5075882;28;20186;-81
2023/03/07 09:37:47;;;;;;;22.60;14.10;;;5.80;99.90;;;;;;5075014;28;20208;-80
2023/03/07 09:40:19;;;;;;;20.60;13.50;;;5.80;99.90;;;;;;5075523;28;20193;-80
2023/03/07 09:43:05;;;;;;;24.33;14.40;;;5.80;99.90;;;;;;5075296;28;20251;-80
2023/03/07 09:45:52;;;;;;;19.53;13.13;;;5.90;99.90;;;;;;5074823;28;20222;-76
2023/03/07 09:48:47;;;;;;;21.13;13.53;;;5.90;99.90;;;;;;5074992;28;20209;-78
2023/03/07 09:51:34;;;;;;;21.50;13.07;;;5.80;99.90;;;;;;5073367;28;20328;-79
2023/03/07 09:54:05;;;;;;;21.73;12.93;;;5.80;99.90;;;;;;5075326;28;20164;-80
2023/03/07 09:56:45;;;;;;;20.87;13.73;;;5.80;99.90;;;;;;5075239;28;20182;-77
2023/03/07 09:59:47;;;;;;;22.63;13.10;;;5.70;99.90;;;;;;5075027;28;20657;-78
2023/03/07 10:02:33;;;;;;;20.53;13.50;;;5.70;99.90;;;;;;5072958;28;20188;-79
2023/03/07 10:05:19;;;;;;;21.67;13.67;;;5.70;99.90;;;;;;5074785;28;20196;-80
2023/03/07 10:07:45;;;;;;;22.23;13.10;;;5.70;99.90;;;;;;5067184;28;20182;-79
2023/03/07 10:10:19;;;;;;;23.10;13.17;;;5.70;99.90;;;;;;5074575;28;20178;-77
2023/03/07 10:13:03;;;;;;;18.37;11.97;;;5.70;99.90;;;;;;5074547;28;20161;-78
2023/03/07 10:15:44;;;;;;;15.97;11.03;;;5.60;99.90;;;;;;5074423;28;20159;-76
2023/03/07 10:18:35;;;;;;;19.03;11.20;;;5.70;99.90;;;;;;5073993;28;20171;-76
2023/03/07 10:21:34;;;;;;;17.30;11.03;;;5.80;99.90;;;;;;5073051;28;20224;-76
2023/03/07 10:24:22;;;;;;;15.17;9.40;;;5.90;99.90;;;;;;5074355;28;20165;-77
2023/03/07 10:27:13;;;;;;;17.53;10.20;;;6.00;99.90;;;;;;5045419;28;20291;-79
2023/03/07 10:29:51;;;;;;;13.60;9.53;;;6.00;99.90;;;;;;5074246;28;20622;-77
2023/03/07 10:32:21;;;;;;;16.57;10.47;;;6.10;99.90;;;;;;5080863;28;20195;-79
2023/03/07 10:35:01;;;;;;;15.37;9.87;;;6.10;99.90;;;;;;5091683;28;20305;-76
2023/03/07 10:37:43;;;;;;;15.47;9.73;;;6.10;99.90;;;;;;5076218;28;20156;-78
2023/03/07 10:40:51;;;;;;;13.63;9.63;;;6.10;99.90;;;;;;5073975;28;20163;-81
2023/03/07 10:43:31;;;;;;;16.23;9.73;;;6.10;99.90;;;;;;5072505;28;20184;-78
2023/03/07 10:46:19;;;;;;;13.90;9.30;;;6.20;99.90;;;;;;5072259;28;20227;-79
2023/03/07 10:48:51;;;;;;;14.37;9.70;;;6.10;99.90;;;;;;5073776;28;20666;-76
2023/03/07 10:51:53;;;;;;;17.43;10.00;;;5.90;99.90;;;;;;5073951;28;20172;-78
2023/03/07 10:54:28;;;;;;;16.40;10.20;;;5.90;99.90;;;;;;5073710;28;20165;-80
2023/03/07 10:57:09;;;;;;;14.60;8.97;;;5.90;99.90;;;;;;5072590;28;20518;-76
2023/03/07 10:59:37;;;;;;;17.43;9.47;;;6.00;99.90;;;;;;5072087;28;20179;-77
2023/03/07 11:02:27;;;;;;;14.17;8.80;;;5.90;99.90;;;;;;5073650;28;20267;-78
2023/03/07 11:04:53;;;;;;;15.57;10.07;;;6.00;99.90;;;;;;5073713;28;20188;-79
2023/03/07 11:07:35;;;;;;;14.07;9.07;;;6.10;99.90;;;;;;5073394;28;20185;-80
2023/03/07 11:10:33;;;;;;;15.57;9.43;;;6.00;99.90;;;;;;5073127;28;20244;-76
2023/03/07 11:13:26;;;;;;;16.50;9.67;;;6.10;99.90;;;;;;5072362;28;20641;-77
2023/03/07 11:16:17;;;;;;;17.87;9.80;;;6.10;99.90;;;;;;5072967;28;20188;-75
2023/03/07 11:18:44;;;;;;;13.53;8.80;;;6.10;99.90;;;;;;5074424;28;20182;-78
2023/03/07 11:21:27;;;;;;;15.53;8.87;;;6.20;99.90;;;;;;5081301;28;20169;-77
2023/03/07 11:24:39;;;;;;;17.57;9.90;;;6.20;99.90;;;;;;5076412;28;20287;-80
2023/03/07 11:27:05;;;;;;;15.70;9.33;;;6.20;99.90;;;;;;5065838;28;20686;-78
2023/03/07 11:29:32;;;;;;;14.83;9.63;;;6.20;99.90;;;;;;5075003;28;20173;-79
2023/03/07 11:32:21;;;;;;;16.57;9.57;;;6.20;99.90;;;;;;5074967;28;20647;-77
2023/03/07 11:35:01;;;;;;;14.50;9.70;;;6.20;99.90;;;;;;5073019;28;20169;-80
2023/03/07 11:37:48;;;;;;;15.07;9.60;;;6.20;99.90;;;;;;5072979;28;20168;-77
2023/03/07 11:40:23;;;;;;;15.20;9.73;;;6.20;99.90;;;;;;5072624;28;20187;-78
2023/03/07 11:43:04;;;;;;;14.80;9.93;;;6.10;99.90;;;;;;5073007;28;20163;-78
2023/03/07 11:45:54;;;;;;;17.70;10.93;;;6.20;99.90;;;;;;5071256;28;20227;-79
2023/03/07 11:49:03;;;;;;;13.57;9.50;;;6.00;99.90;;;;;;5072623;28;20173;-79
2023/03/07 11:52:05;;;;;;;14.77;9.03;;;5.80;99.90;;;;;;5011124;28;20656;-78
2023/03/07 11:55:02;;;;;;;15.40;9.03;;;5.70;99.90;;;;;;5072967;28;20627;-78
2023/03/07 11:57:48;;;;;;;17.23;10.17;;;5.70;99.90;;;;;;5072773;28;20212;-78
2023/03/07 12:00:25;;;;;;;13.43;8.90;;;5.80;99.90;;;;;;5072907;28;20171;-78
2023/03/07 12:03:09;;;;;;;17.30;9.70;;;5.90;99.90;;;;;;5074474;28;20533;-79
2023/03/07 12:06:06;;;;;;;14.73;8.93;;;5.90;99.90;;;;;;5081787;28;20202;-80
2023/03/07 12:09:01;;;;;;;17.77;10.17;;;6.00;99.90;;;;;;5088710;28;20523;-76
2023/03/07 12:12:04;;;;;;;13.10;8.67;;;6.10;99.90;;;;;;5064329;28;20227;-78
2023/03/07 12:14:47;;;;;;;14.93;8.60;;;6.10;99.90;;;;;;5073721;28;20205;-76
2023/03/07 12:17:34;;;;;;;15.60;9.20;;;6.00;99.90;;;;;;5072867;28;20172;-76
2023/03/07 12:20:18;;;;;;;17.77;10.00;;;6.00;99.90;;;;;;5072561;28;20207;-79
2023/03/07 12:23:06;;;;;;;17.97;10.80;;;6.10;99.90;;;;;;5072432;28;20182;-79
2023/03/07 12:25:43;;;;;;;16.57;9.77;;;6.20;99.90;;;;;;5071980;28;20241;-76
2023/03/07 12:28:21;;;;;;;15.90;8.90;;;6.30;99.90;;;;;;5072294;28;20193;-79
2023/03/07 12:31:21;;;;;;;17.43;9.60;;;6.30;99.90;;;;;;5070584;28;20640;-78
2023/03/07 12:34:08;;;;;;;17.43;8.97;;;6.40;99.90;;;;;;5072182;28;20641;-79
2023/03/07 12:37:09;;;;;;;14.47;8.57;;;6.40;99.90;;;;;;5072334;28;20168;-77
2023/03/07 12:39:56;;;;;;;13.70;8.60;;;6.50;99.90;;;;;;5010127;28;20188;-79
2023/03/07 12:42:58;;;;;;;17.40;8.97;;;6.60;99.90;;;;;;4996409;28;20189;-79
2023/03/07 12:45:27;;;;;;;17.47;9.00;;;6.50;99.90;;;;;;5014202;28;20297;-80
2023/03/07 12:47:52;;;;;;;14.83;8.70;;;6.60;99.90;;;;;;5014415;28;20170;-78
2023/03/07 12:50:42;;;;;;;15.13;8.43;;;6.70;99.90;;;;;;5013843;28;20188;-78
2023/03/07 12:53:29;;;;;;;15.67;8.90;;;6.70;99.90;;;;;;5014425;28;20162;-75
2023/03/07 12:56:02;;;;;;;17.20;9.93;;;6.80;99.90;;;;;;5013076;28;20204;-80
2023/03/07 12:58:36;;;;;;;14.17;9.00;;;6.70;99.90;;;;;;5014212;28;20182;-77